sensor_id;sensor_type;location;lat;lon;timestamp;P1;durP1;ratioP1;P2;durP2;ratioP2
41711;SDS011;27399;51.516;13.670;2023-02-28T00:02:14;3.72;;;1.80;;
41711;SDS011;27399;51.516;13.670;2023-02-28T00:04:42;4.60;;;2.40;;
41711;SDS011;27399;51.516;13.670;2023-02-28T00:07:08;5.40;;;1.92;;
41711;SDS011;27399;51.516;13.670;2023-02-28T00:09:34;4.28;;;1.45;;
41711;SDS011;27399;51.516;13.670;2023-02-28T00:11:59;4.18;;;1.80;;
41711;SDS011;27399;51.516;13.670;2023-02-28T00:14:29;3.00;;;1.70;;
41711;SDS011;27399;51.516;13.670;2023-02-28T00:16:55;5.25;;;1.75;;
41711;SDS011;27399;51.516;13.670;2023-02-28T00:19:21;5.55;;;1.63;;
41711;SDS011;27399;51.516;13.670;2023-02-28T00:21:46;6.60;;;2.38;;
41711;SDS011;27399;51.516;13.670;2023-02-28T00:24:12;5.03;;;2.05;;
41711;SDS011;27399;51.516;13.670;2023-02-28T00:26:37;5.15;;;1.75;;
41711;SDS011;27399;51.516;13.670;2023-02-28T00:29:03;4.75;;;1.92;;
41711;SDS011;27399;51.516;13.670;2023-02-28T00:31:28;3.80;;;1.95;;
41711;SDS011;27399;51.516;13.670;2023-02-28T00:33:54;7.60;;;2.00;;
41711;SDS011;27399;51.516;13.670;2023-02-28T00:36:20;7.25;;;1.70;;
41711;SDS011;27399;51.516;13.670;2023-02-28T00:38:45;4.45;;;1.77;;
41711;SDS011;27399;51.516;13.670;2023-02-28T00:41:11;3.78;;;1.55;;
41711;SDS011;27399;51.516;13.670;2023-02-28T00:43:37;3.55;;;2.00;;
41711;SDS011;27399;51.516;13.670;2023-02-28T00:46:03;3.97;;;1.45;;
41711;SDS011;27399;51.516;13.670;2023-02-28T00:48:29;4.63;;;2.20;;
41711;SDS011;27399;51.516;13.670;2023-02-28T00:50:55;6.20;;;2.10;;
41711;SDS011;27399;51.516;13.670;2023-02-28T00:53:21;5.22;;;2.40;;
41711;SDS011;27399;51.516;13.670;2023-02-28T00:55:47;10.32;;;2.65;;
41711;SDS011;27399;51.516;13.670;2023-02-28T00:58:13;6.45;;;2.50;;
41711;SDS011;27399;51.516;13.670;2023-02-28T01:00:39;5.05;;;2.70;;
41711;SDS011;27399;51.516;13.670;2023-02-28T01:03:04;4.35;;;2.08;;
41711;SDS011;27399;51.516;13.670;2023-02-28T01:05:30;5.38;;;2.40;;
41711;SDS011;27399;51.516;13.670;2023-02-28T01:07:56;10.07;;;2.08;;
41711;SDS011;27399;51.516;13.670;2023-02-28T01:10:21;7.07;;;1.90;;
41711;SDS011;27399;51.516;13.670;2023-02-28T01:12:47;6.57;;;1.90;;
41711;SDS011;27399;51.516;13.670;2023-02-28T01:15:12;3.40;;;1.83;;
41711;SDS011;27399;51.516;13.670;2023-02-28T01:17:38;7.10;;;2.45;;
41711;SDS011;27399;51.516;13.670;2023-02-28T01:20:04;5.53;;;2.30;;
41711;SDS011;27399;51.516;13.670;2023-02-28T01:22:30;5.35;;;2.08;;
41711;SDS011;27399;51.516;13.670;2023-02-28T01:24:56;3.83;;;1.90;;
41711;SDS011;27399;51.516;13.670;2023-02-28T01:27:21;4.65;;;1.95;;
41711;SDS011;27399;51.516;13.670;2023-02-28T01:29:47;6.03;;;2.15;;
41711;SDS011;27399;51.516;13.670;2023-02-28T01:32:13;5.82;;;1.88;;
41711;SDS011;27399;51.516;13.670;2023-02-28T01:34:38;9.55;;;2.17;;
41711;SDS011;27399;51.516;13.670;2023-02-28T01:37:04;5.55;;;2.22;;
41711;SDS011;27399;51.516;13.670;2023-02-28T01:39:30;6.75;;;2.45;;
41711;SDS011;27399;51.516;13.670;2023-02-28T01:41:55;6.25;;;2.45;;
41711;SDS011;27399;51.516;13.670;2023-02-28T01:47:24;4.75;;;1.85;;
41711;SDS011;27399;51.516;13.670;2023-02-28T01:49:53;8.77;;;2.10;;
41711;SDS011;27399;51.516;13.670;2023-02-28T01:52:19;6.38;;;2.30;;
41711;SDS011;27399;51.516;13.670;2023-02-28T01:54:49;7.43;;;2.65;;
41711;SDS011;27399;51.516;13.670;2023-02-28T01:57:18;6.97;;;2.50;;
41711;SDS011;27399;51.516;13.670;2023-02-28T01:59:59;12.13;;;3.08;;
41711;SDS011;27399;51.516;13.670;2023-02-28T02:02:30;4.13;;;2.30;;
41711;SDS011;27399;51.516;13.670;2023-02-28T02:05:03;5.22;;;2.28;;
41711;SDS011;27399;51.516;13.670;2023-02-28T02:07:39;6.80;;;2.53;;
41711;SDS011;27399;51.516;13.670;2023-02-28T02:15:49;6.22;;;2.05;;
41711;SDS011;27399;51.516;13.670;2023-02-28T02:24:03;4.85;;;2.20;;
41711;SDS011;27399;51.516;13.670;2023-02-28T02:32:16;5.38;;;2.25;;
41711;SDS011;27399;51.516;13.670;2023-02-28T02:40:16;4.72;;;1.92;;
41711;SDS011;27399;51.516;13.670;2023-02-28T02:45:40;4.43;;;2.40;;
41711;SDS011;27399;51.516;13.670;2023-02-28T02:48:11;6.82;;;2.45;;
41711;SDS011;27399;51.516;13.670;2023-02-28T02:50:42;5.65;;;2.20;;
41711;SDS011;27399;51.516;13.670;2023-02-28T02:55:39;4.95;;;2.22;;
41711;SDS011;27399;51.516;13.670;2023-02-28T02:58:10;6.28;;;2.38;;
41711;SDS011;27399;51.516;13.670;2023-02-28T03:00:42;7.80;;;2.60;;
41711;SDS011;27399;51.516;13.670;2023-02-28T03:03:11;5.88;;;2.67;;
41711;SDS011;27399;51.516;13.670;2023-02-28T03:05:48;6.18;;;2.85;;
41711;SDS011;27399;51.516;13.670;2023-02-28T03:08:15;5.97;;;2.60;;
41711;SDS011;27399;51.516;13.670;2023-02-28T03:10:44;6.50;;;2.50;;
41711;SDS011;27399;51.516;13.670;2023-02-28T03:18:53;6.15;;;2.42;;
41711;SDS011;27399;51.516;13.670;2023-02-28T03:24:56;5.18;;;2.13;;
41711;SDS011;27399;51.516;13.670;2023-02-28T03:27:29;5.85;;;2.30;;
41711;SDS011;27399;51.516;13.670;2023-02-28T03:30:22;5.60;;;2.15;;
41711;SDS011;27399;51.516;13.670;2023-02-28T03:32:58;11.82;;;2.75;;
41711;SDS011;27399;51.516;13.670;2023-02-28T03:35:31;19.52;;;3.28;;
41711;SDS011;27399;51.516;13.670;2023-02-28T03:38:06;8.10;;;3.35;;
41711;SDS011;27399;51.516;13.670;2023-02-28T03:40:39;7.22;;;2.83;;
41711;SDS011;27399;51.516;13.670;2023-02-28T03:43:14;11.48;;;3.53;;
41711;SDS011;27399;51.516;13.670;2023-02-28T03:45:48;5.15;;;2.40;;
41711;SDS011;27399;51.516;13.670;2023-02-28T03:48:20;6.90;;;2.67;;
41711;SDS011;27399;51.516;13.670;2023-02-28T03:50:58;7.15;;;3.38;;
41711;SDS011;27399;51.516;13.670;2023-02-28T03:53:32;7.60;;;3.03;;
41711;SDS011;27399;51.516;13.670;2023-02-28T03:56:22;6.40;;;2.05;;
41711;SDS011;27399;51.516;13.670;2023-02-28T04:01:40;6.85;;;2.33;;
41711;SDS011;27399;51.516;13.670;2023-02-28T04:04:09;6.93;;;3.40;;
41711;SDS011;27399;51.516;13.670;2023-02-28T04:06:36;7.97;;;3.17;;
41711;SDS011;27399;51.516;13.670;2023-02-28T04:09:03;8.05;;;3.33;;
41711;SDS011;27399;51.516;13.670;2023-02-28T04:11:34;6.38;;;2.58;;
41711;SDS011;27399;51.516;13.670;2023-02-28T04:14:02;6.78;;;2.90;;
41711;SDS011;27399;51.516;13.670;2023-02-28T04:16:29;7.50;;;3.35;;
41711;SDS011;27399;51.516;13.670;2023-02-28T04:18:56;6.60;;;2.78;;
41711;SDS011;27399;51.516;13.670;2023-02-28T04:21:30;5.45;;;2.50;;
41711;SDS011;27399;51.516;13.670;2023-02-28T04:26:29;5.43;;;2.50;;
41711;SDS011;27399;51.516;13.670;2023-02-28T04:28:55;8.27;;;2.85;;
41711;SDS011;27399;51.516;13.670;2023-02-28T04:31:21;5.88;;;2.50;;
41711;SDS011;27399;51.516;13.670;2023-02-28T04:33:47;10.13;;;3.30;;
41711;SDS011;27399;51.516;13.670;2023-02-28T04:36:12;6.07;;;2.97;;
41711;SDS011;27399;51.516;13.670;2023-02-28T04:38:39;10.48;;;3.10;;
41711;SDS011;27399;51.516;13.670;2023-02-28T04:41:05;8.18;;;2.83;;
41711;SDS011;27399;51.516;13.670;2023-02-28T04:43:31;6.68;;;3.08;;
41711;SDS011;27399;51.516;13.670;2023-02-28T04:45:57;6.93;;;3.25;;
41711;SDS011;27399;51.516;13.670;2023-02-28T04:48:27;9.20;;;3.83;;
41711;SDS011;27399;51.516;13.670;2023-02-28T04:50:54;9.57;;;3.50;;
41711;SDS011;27399;51.516;13.670;2023-02-28T04:53:20;5.05;;;2.42;;
41711;SDS011;27399;51.516;13.670;2023-02-28T04:55:46;7.03;;;3.35;;
41711;SDS011;27399;51.516;13.670;2023-02-28T04:58:13;8.07;;;2.83;;
41711;SDS011;27399;51.516;13.670;2023-02-28T05:00:39;9.25;;;3.08;;
41711;SDS011;27399;51.516;13.670;2023-02-28T05:03:05;8.13;;;3.78;;
41711;SDS011;27399;51.516;13.670;2023-02-28T05:05:30;9.18;;;3.40;;
41711;SDS011;27399;51.516;13.670;2023-02-28T05:07:56;6.97;;;3.00;;
41711;SDS011;27399;51.516;13.670;2023-02-28T05:10:22;7.20;;;3.30;;
41711;SDS011;27399;51.516;13.670;2023-02-28T05:12:48;8.05;;;3.22;;
41711;SDS011;27399;51.516;13.670;2023-02-28T05:15:14;11.82;;;4.32;;
41711;SDS011;27399;51.516;13.670;2023-02-28T05:17:41;9.32;;;3.25;;
41711;SDS011;27399;51.516;13.670;2023-02-28T05:20:07;8.38;;;3.08;;
41711;SDS011;27399;51.516;13.670;2023-02-28T05:22:41;8.57;;;3.45;;
41711;SDS011;27399;51.516;13.670;2023-02-28T05:25:12;10.60;;;3.60;;
41711;SDS011;27399;51.516;13.670;2023-02-28T05:27:40;7.82;;;3.33;;
41711;SDS011;27399;51.516;13.670;2023-02-28T05:30:06;8.65;;;3.20;;
41711;SDS011;27399;51.516;13.670;2023-02-28T05:32:35;7.57;;;2.95;;
41711;SDS011;27399;51.516;13.670;2023-02-28T05:35:08;6.57;;;3.22;;
41711;SDS011;27399;51.516;13.670;2023-02-28T05:37:35;10.23;;;3.92;;
41711;SDS011;27399;51.516;13.670;2023-02-28T05:40:02;8.85;;;3.45;;
41711;SDS011;27399;51.516;13.670;2023-02-28T05:42:31;9.85;;;3.88;;
41711;SDS011;27399;51.516;13.670;2023-02-28T05:44:57;11.50;;;3.65;;
41711;SDS011;27399;51.516;13.670;2023-02-28T05:47:22;8.23;;;3.65;;
41711;SDS011;27399;51.516;13.670;2023-02-28T05:49:48;10.88;;;3.38;;
41711;SDS011;27399;51.516;13.670;2023-02-28T05:52:13;7.25;;;3.45;;
41711;SDS011;27399;51.516;13.670;2023-02-28T05:54:39;9.02;;;3.83;;
41711;SDS011;27399;51.516;13.670;2023-02-28T05:57:05;8.20;;;3.08;;
41711;SDS011;27399;51.516;13.670;2023-02-28T05:59:31;10.50;;;3.47;;
41711;SDS011;27399;51.516;13.670;2023-02-28T06:01:56;6.85;;;3.20;;
41711;SDS011;27399;51.516;13.670;2023-02-28T06:04:22;11.07;;;3.47;;
41711;SDS011;27399;51.516;13.670;2023-02-28T06:06:47;9.30;;;3.72;;
41711;SDS011;27399;51.516;13.670;2023-02-28T06:09:14;10.10;;;4.32;;
41711;SDS011;27399;51.516;13.670;2023-02-28T06:11:40;8.48;;;3.55;;
41711;SDS011;27399;51.516;13.670;2023-02-28T06:14:07;10.00;;;2.90;;
41711;SDS011;27399;51.516;13.670;2023-02-28T06:16:37;11.50;;;3.78;;
41711;SDS011;27399;51.516;13.670;2023-02-28T06:19:03;6.90;;;3.20;;
41711;SDS011;27399;51.516;13.670;2023-02-28T06:21:29;8.38;;;4.05;;
41711;SDS011;27399;51.516;13.670;2023-02-28T06:23:56;6.95;;;3.40;;
41711;SDS011;27399;51.516;13.670;2023-02-28T06:26:23;9.55;;;2.92;;
41711;SDS011;27399;51.516;13.670;2023-02-28T06:28:49;8.85;;;4.22;;
41711;SDS011;27399;51.516;13.670;2023-02-28T06:31:16;10.57;;;3.97;;
41711;SDS011;27399;51.516;13.670;2023-02-28T06:33:42;6.38;;;3.00;;
41711;SDS011;27399;51.516;13.670;2023-02-28T06:36:10;10.48;;;3.90;;
41711;SDS011;27399;51.516;13.670;2023-02-28T06:38:37;10.68;;;3.30;;
41711;SDS011;27399;51.516;13.670;2023-02-28T06:41:04;9.07;;;3.72;;
41711;SDS011;27399;51.516;13.670;2023-02-28T06:43:31;9.77;;;3.28;;
41711;SDS011;27399;51.516;13.670;2023-02-28T06:46:00;7.90;;;3.40;;
41711;SDS011;27399;51.516;13.670;2023-02-28T06:48:27;7.63;;;4.50;;
41711;SDS011;27399;51.516;13.670;2023-02-28T06:51:03;8.15;;;3.50;;
41711;SDS011;27399;51.516;13.670;2023-02-28T06:53:33;7.68;;;3.30;;
41711;SDS011;27399;51.516;13.670;2023-02-28T06:55:59;7.18;;;3.20;;
41711;SDS011;27399;51.516;13.670;2023-02-28T06:58:28;9.65;;;3.75;;
41711;SDS011;27399;51.516;13.670;2023-02-28T07:00:54;11.27;;;3.53;;
41711;SDS011;27399;51.516;13.670;2023-02-28T07:03:21;11.48;;;3.53;;
41711;SDS011;27399;51.516;13.670;2023-02-28T07:05:46;7.55;;;3.78;;
41711;SDS011;27399;51.516;13.670;2023-02-28T07:08:12;13.55;;;3.83;;
41711;SDS011;27399;51.516;13.670;2023-02-28T07:10:38;9.40;;;3.20;;
41711;SDS011;27399;51.516;13.670;2023-02-28T07:13:04;9.13;;;3.17;;
41711;SDS011;27399;51.516;13.670;2023-02-28T07:15:32;7.32;;;3.22;;
41711;SDS011;27399;51.516;13.670;2023-02-28T07:17:57;12.60;;;3.63;;
41711;SDS011;27399;51.516;13.670;2023-02-28T07:20:23;8.50;;;3.38;;
41711;SDS011;27399;51.516;13.670;2023-02-28T07:22:50;7.78;;;3.10;;
41711;SDS011;27399;51.516;13.670;2023-02-28T07:25:24;12.70;;;3.63;;
41711;SDS011;27399;51.516;13.670;2023-02-28T07:30:17;11.80;;;3.72;;
41711;SDS011;27399;51.516;13.670;2023-02-28T07:32:43;10.27;;;3.90;;
41711;SDS011;27399;51.516;13.670;2023-02-28T07:35:09;8.07;;;3.50;;
41711;SDS011;27399;51.516;13.670;2023-02-28T07:37:34;8.88;;;3.60;;
41711;SDS011;27399;51.516;13.670;2023-02-28T07:40:04;11.23;;;5.28;;
41711;SDS011;27399;51.516;13.670;2023-02-28T07:42:36;12.77;;;3.75;;
41711;SDS011;27399;51.516;13.670;2023-02-28T07:45:03;16.20;;;3.90;;
41711;SDS011;27399;51.516;13.670;2023-02-28T07:47:29;10.50;;;3.90;;
41711;SDS011;27399;51.516;13.670;2023-02-28T07:49:56;12.32;;;3.88;;
41711;SDS011;27399;51.516;13.670;2023-02-28T07:52:21;9.32;;;3.30;;
41711;SDS011;27399;51.516;13.670;2023-02-28T07:54:49;9.05;;;4.18;;
41711;SDS011;27399;51.516;13.670;2023-02-28T07:57:17;9.95;;;4.38;;
41711;SDS011;27399;51.516;13.670;2023-02-28T07:59:43;7.80;;;3.65;;
41711;SDS011;27399;51.516;13.670;2023-02-28T08:02:12;11.93;;;3.92;;
41711;SDS011;27399;51.516;13.670;2023-02-28T08:04:39;10.07;;;3.60;;
41711;SDS011;27399;51.516;13.670;2023-02-28T08:07:05;7.00;;;3.83;;
41711;SDS011;27399;51.516;13.670;2023-02-28T08:09:30;7.45;;;3.25;;
41711;SDS011;27399;51.516;13.670;2023-02-28T08:11:56;6.65;;;3.55;;
41711;SDS011;27399;51.516;13.670;2023-02-28T08:14:21;6.00;;;2.60;;
41711;SDS011;27399;51.516;13.670;2023-02-28T08:16:47;11.70;;;3.40;;
41711;SDS011;27399;51.516;13.670;2023-02-28T08:19:13;8.05;;;2.85;;
41711;SDS011;27399;51.516;13.670;2023-02-28T08:21:38;7.72;;;3.03;;
41711;SDS011;27399;51.516;13.670;2023-02-28T08:24:05;11.32;;;3.28;;
41711;SDS011;27399;51.516;13.670;2023-02-28T08:26:31;8.68;;;3.08;;
41711;SDS011;27399;51.516;13.670;2023-02-28T08:28:57;8.40;;;3.33;;
41711;SDS011;27399;51.516;13.670;2023-02-28T08:31:22;6.38;;;2.53;;
41711;SDS011;27399;51.516;13.670;2023-02-28T08:33:48;6.93;;;3.00;;
41711;SDS011;27399;51.516;13.670;2023-02-28T08:36:16;7.47;;;3.10;;
41711;SDS011;27399;51.516;13.670;2023-02-28T08:38:42;12.55;;;3.78;;
41711;SDS011;27399;51.516;13.670;2023-02-28T08:41:09;8.40;;;2.85;;
41711;SDS011;27399;51.516;13.670;2023-02-28T08:43:36;9.02;;;2.97;;
41711;SDS011;27399;51.516;13.670;2023-02-28T08:46:02;7.03;;;2.80;;
41711;SDS011;27399;51.516;13.670;2023-02-28T08:48:29;9.48;;;3.25;;
41711;SDS011;27399;51.516;13.670;2023-02-28T08:51:04;8.07;;;2.72;;
41711;SDS011;27399;51.516;13.670;2023-02-28T08:53:32;8.82;;;3.35;;
41711;SDS011;27399;51.516;13.670;2023-02-28T08:56:02;7.22;;;3.03;;
41711;SDS011;27399;51.516;13.670;2023-02-28T08:58:30;5.80;;;2.72;;
41711;SDS011;27399;51.516;13.670;2023-02-28T09:00:56;9.90;;;3.65;;
41711;SDS011;27399;51.516;13.670;2023-02-28T09:06:49;8.00;;;3.33;;
41711;SDS011;27399;51.516;13.670;2023-02-28T09:09:15;7.97;;;2.95;;
41711;SDS011;27399;51.516;13.670;2023-02-28T09:11:41;14.40;;;4.38;;
41711;SDS011;27399;51.516;13.670;2023-02-28T09:14:06;6.95;;;3.17;;
41711;SDS011;27399;51.516;13.670;2023-02-28T09:16:32;6.05;;;2.83;;
41711;SDS011;27399;51.516;13.670;2023-02-28T09:18:58;9.18;;;3.13;;
41711;SDS011;27399;51.516;13.670;2023-02-28T09:21:24;9.48;;;3.13;;
41711;SDS011;27399;51.516;13.670;2023-02-28T09:23:50;8.35;;;2.78;;
41711;SDS011;27399;51.516;13.670;2023-02-28T09:26:17;7.32;;;3.30;;
41711;SDS011;27399;51.516;13.670;2023-02-28T09:28:45;7.25;;;3.08;;
41711;SDS011;27399;51.516;13.670;2023-02-28T09:31:12;8.27;;;3.60;;
41711;SDS011;27399;51.516;13.670;2023-02-28T09:36:07;11.25;;;2.92;;
41711;SDS011;27399;51.516;13.670;2023-02-28T09:38:33;11.88;;;4.88;;
41711;SDS011;27399;51.516;13.670;2023-02-28T09:41:01;8.45;;;3.17;;
41711;SDS011;27399;51.516;13.670;2023-02-28T09:43:32;9.23;;;3.45;;
41711;SDS011;27399;51.516;13.670;2023-02-28T09:48:48;11.32;;;4.75;;
41711;SDS011;27399;51.516;13.670;2023-02-28T09:51:23;12.32;;;3.80;;
41711;SDS011;27399;51.516;13.670;2023-02-28T09:53:58;9.57;;;3.50;;
41711;SDS011;27399;51.516;13.670;2023-02-28T09:56:25;6.07;;;3.40;;
41711;SDS011;27399;51.516;13.670;2023-02-28T09:58:59;7.18;;;3.58;;
41711;SDS011;27399;51.516;13.670;2023-02-28T10:07:20;7.68;;;3.88;;
41711;SDS011;27399;51.516;13.670;2023-02-28T10:09:59;9.10;;;3.28;;
41711;SDS011;27399;51.516;13.670;2023-02-28T10:12:30;8.63;;;3.90;;
41711;SDS011;27399;51.516;13.670;2023-02-28T10:14:58;11.05;;;3.97;;
41711;SDS011;27399;51.516;13.670;2023-02-28T10:17:31;9.68;;;3.72;;
41711;SDS011;27399;51.516;13.670;2023-02-28T10:20:06;8.63;;;3.70;;
41711;SDS011;27399;51.516;13.670;2023-02-28T10:23:00;11.02;;;3.30;;
41711;SDS011;27399;51.516;13.670;2023-02-28T10:25:33;6.20;;;3.13;;
41711;SDS011;27399;51.516;13.670;2023-02-28T10:28:07;9.45;;;3.92;;
41711;SDS011;27399;51.516;13.670;2023-02-28T10:30:37;7.10;;;3.38;;
41711;SDS011;27399;51.516;13.670;2023-02-28T10:35:40;9.45;;;3.83;;
41711;SDS011;27399;51.516;13.670;2023-02-28T10:38:09;5.20;;;2.85;;
41711;SDS011;27399;51.516;13.670;2023-02-28T10:40:42;6.90;;;3.38;;
41711;SDS011;27399;51.516;13.670;2023-02-28T10:45:39;9.27;;;3.63;;
41711;SDS011;27399;51.516;13.670;2023-02-28T10:55:55;12.50;;;3.83;;
41711;SDS011;27399;51.516;13.670;2023-02-28T10:58:24;11.00;;;4.13;;
41711;SDS011;27399;51.516;13.670;2023-02-28T11:00:52;9.98;;;3.50;;
41711;SDS011;27399;51.516;13.670;2023-02-28T11:03:23;9.18;;;3.58;;
41711;SDS011;27399;51.516;13.670;2023-02-28T11:06:04;8.20;;;4.10;;
41711;SDS011;27399;51.516;13.670;2023-02-28T11:08:32;9.70;;;4.38;;
41711;SDS011;27399;51.516;13.670;2023-02-28T11:10:58;6.80;;;3.47;;
41711;SDS011;27399;51.516;13.670;2023-02-28T11:13:32;9.43;;;3.83;;
41711;SDS011;27399;51.516;13.670;2023-02-28T11:16:07;7.82;;;3.88;;
41711;SDS011;27399;51.516;13.670;2023-02-28T11:18:38;8.80;;;3.78;;
41711;SDS011;27399;51.516;13.670;2023-02-28T11:23:51;8.02;;;3.97;;
41711;SDS011;27399;51.516;13.670;2023-02-28T11:26:41;9.40;;;3.92;;
41711;SDS011;27399;51.516;13.670;2023-02-28T11:29:10;7.30;;;3.53;;
41711;SDS011;27399;51.516;13.670;2023-02-28T11:34:31;9.27;;;4.05;;
41711;SDS011;27399;51.516;13.670;2023-02-28T11:36:58;13.77;;;4.15;;
41711;SDS011;27399;51.516;13.670;2023-02-28T11:39:25;8.50;;;3.55;;
41711;SDS011;27399;51.516;13.670;2023-02-28T11:44:51;10.60;;;3.88;;
41711;SDS011;27399;51.516;13.670;2023-02-28T11:48:09;10.73;;;4.47;;
41711;SDS011;27399;51.516;13.670;2023-02-28T12:04:57;11.57;;;4.15;;
41711;SDS011;27399;51.516;13.670;2023-02-28T12:10:37;9.27;;;3.75;;
41711;SDS011;27399;51.516;13.670;2023-02-28T12:13:29;7.57;;;3.35;;
41711;SDS011;27399;51.516;13.670;2023-02-28T12:22:05;9.95;;;3.80;;
41711;SDS011;27399;51.516;13.670;2023-02-28T12:27:33;9.32;;;3.13;;
41711;SDS011;27399;51.516;13.670;2023-02-28T12:30:08;10.07;;;3.88;;
41711;SDS011;27399;51.516;13.670;2023-02-28T12:32:45;6.75;;;3.33;;
41711;SDS011;27399;51.516;13.670;2023-02-28T12:35:39;9.05;;;3.88;;
41711;SDS011;27399;51.516;13.670;2023-02-28T12:38:17;11.20;;;4.35;;
41711;SDS011;27399;51.516;13.670;2023-02-28T12:43:41;7.97;;;3.15;;
41711;SDS011;27399;51.516;13.670;2023-02-28T12:48:50;8.38;;;4.35;;
41711;SDS011;27399;51.516;13.670;2023-02-28T12:51:21;7.70;;;3.97;;
41711;SDS011;27399;51.516;13.670;2023-02-28T12:54:02;8.13;;;3.80;;
41711;SDS011;27399;51.516;13.670;2023-02-28T13:01:57;7.70;;;3.60;;
41711;SDS011;27399;51.516;13.670;2023-02-28T13:09:59;8.15;;;4.30;;
41711;SDS011;27399;51.516;13.670;2023-02-28T13:12:27;9.60;;;3.80;;
41711;SDS011;27399;51.516;13.670;2023-02-28T13:15:04;8.73;;;4.18;;
41711;SDS011;27399;51.516;13.670;2023-02-28T13:17:41;9.45;;;4.60;;
41711;SDS011;27399;51.516;13.670;2023-02-28T13:20:33;9.52;;;4.47;;
41711;SDS011;27399;51.516;13.670;2023-02-28T13:23:01;10.98;;;4.22;;
41711;SDS011;27399;51.516;13.670;2023-02-28T13:27:59;13.40;;;5.10;;
41711;SDS011;27399;51.516;13.670;2023-02-28T13:33:31;8.10;;;4.15;;
41711;SDS011;27399;51.516;13.670;2023-02-28T13:36:09;9.50;;;4.00;;
41711;SDS011;27399;51.516;13.670;2023-02-28T13:38:43;10.50;;;4.30;;
41711;SDS011;27399;51.516;13.670;2023-02-28T13:44:02;10.27;;;4.63;;
41711;SDS011;27399;51.516;13.670;2023-02-28T13:46:31;10.73;;;4.88;;
41711;SDS011;27399;51.516;13.670;2023-02-28T13:57:24;13.23;;;4.60;;
41711;SDS011;27399;51.516;13.670;2023-02-28T14:05:23;9.45;;;4.55;;
41711;SDS011;27399;51.516;13.670;2023-02-28T14:07:57;8.55;;;4.35;;
41711;SDS011;27399;51.516;13.670;2023-02-28T14:10:32;11.30;;;5.00;;
41711;SDS011;27399;51.516;13.670;2023-02-28T14:13:38;7.43;;;3.50;;
41711;SDS011;27399;51.516;13.670;2023-02-28T14:16:16;11.80;;;4.20;;
41711;SDS011;27399;51.516;13.670;2023-02-28T14:19:09;7.53;;;4.20;;
41711;SDS011;27399;51.516;13.670;2023-02-28T14:21:43;7.72;;;3.55;;
41711;SDS011;27399;51.516;13.670;2023-02-28T14:37:52;7.40;;;3.53;;
41711;SDS011;27399;51.516;13.670;2023-02-28T14:43:01;9.63;;;3.50;;
41711;SDS011;27399;51.516;13.670;2023-02-28T14:45:32;5.70;;;3.22;;
41711;SDS011;27399;51.516;13.670;2023-02-28T14:47:59;10.27;;;2.75;;
41711;SDS011;27399;51.516;13.670;2023-02-28T14:50:30;9.02;;;3.40;;
41711;SDS011;27399;51.516;13.670;2023-02-28T14:52:59;6.40;;;3.10;;
41711;SDS011;27399;51.516;13.670;2023-02-28T14:55:28;7.25;;;2.95;;
41711;SDS011;27399;51.516;13.670;2023-02-28T14:57:56;6.85;;;3.22;;
41711;SDS011;27399;51.516;13.670;2023-02-28T15:00:26;8.43;;;2.87;;
41711;SDS011;27399;51.516;13.670;2023-02-28T15:02:55;9.80;;;3.22;;
41711;SDS011;27399;51.516;13.670;2023-02-28T15:05:34;7.25;;;3.25;;
41711;SDS011;27399;51.516;13.670;2023-02-28T15:08:21;5.95;;;2.90;;
41711;SDS011;27399;51.516;13.670;2023-02-28T15:10:50;9.32;;;3.85;;
41711;SDS011;27399;51.516;13.670;2023-02-28T15:13:22;8.13;;;3.80;;
41711;SDS011;27399;51.516;13.670;2023-02-28T15:15:53;6.88;;;2.97;;
41711;SDS011;27399;51.516;13.670;2023-02-28T15:18:33;10.18;;;3.25;;
41711;SDS011;27399;51.516;13.670;2023-02-28T15:28:22;6.40;;;3.13;;
41711;SDS011;27399;51.516;13.670;2023-02-28T15:30:59;5.75;;;2.70;;
41711;SDS011;27399;51.516;13.670;2023-02-28T15:33:27;8.55;;;3.22;;
41711;SDS011;27399;51.516;13.670;2023-02-28T15:36:13;8.57;;;2.90;;
41711;SDS011;27399;51.516;13.670;2023-02-28T15:38:42;7.68;;;2.92;;
41711;SDS011;27399;51.516;13.670;2023-02-28T15:41:22;7.85;;;3.33;;
41711;SDS011;27399;51.516;13.670;2023-02-28T15:44:13;6.00;;;2.90;;
41711;SDS011;27399;51.516;13.670;2023-02-28T15:49:26;8.98;;;2.67;;
41711;SDS011;27399;51.516;13.670;2023-02-28T15:51:53;8.38;;;3.08;;
41711;SDS011;27399;51.516;13.670;2023-02-28T15:54:24;6.35;;;2.55;;
41711;SDS011;27399;51.516;13.670;2023-02-28T15:56:55;7.32;;;3.47;;
41711;SDS011;27399;51.516;13.670;2023-02-28T15:59:26;7.65;;;2.88;;
41711;SDS011;27399;51.516;13.670;2023-02-28T16:04:37;6.28;;;3.13;;
41711;SDS011;27399;51.516;13.670;2023-02-28T16:07:19;14.63;;;2.78;;
41711;SDS011;27399;51.516;13.670;2023-02-28T16:09:45;10.00;;;3.15;;
41711;SDS011;27399;51.516;13.670;2023-02-28T16:12:12;13.40;;;4.28;;
41711;SDS011;27399;51.516;13.670;2023-02-28T16:14:38;5.93;;;2.50;;
41711;SDS011;27399;51.516;13.670;2023-02-28T16:17:14;5.53;;;2.60;;
41711;SDS011;27399;51.516;13.670;2023-02-28T16:19:45;7.03;;;2.67;;
41711;SDS011;27399;51.516;13.670;2023-02-28T16:22:11;9.45;;;3.35;;
41711;SDS011;27399;51.516;13.670;2023-02-28T16:24:36;6.68;;;2.55;;
41711;SDS011;27399;51.516;13.670;2023-02-28T16:27:03;7.35;;;2.30;;
41711;SDS011;27399;51.516;13.670;2023-02-28T16:29:31;7.40;;;2.72;;
41711;SDS011;27399;51.516;13.670;2023-02-28T16:31:59;5.63;;;2.55;;
41711;SDS011;27399;51.516;13.670;2023-02-28T16:34:26;7.97;;;2.22;;
41711;SDS011;27399;51.516;13.670;2023-02-28T16:36:52;5.47;;;2.45;;
41711;SDS011;27399;51.516;13.670;2023-02-28T16:39:17;11.35;;;2.72;;
41711;SDS011;27399;51.516;13.670;2023-02-28T16:41:45;6.75;;;2.28;;
41711;SDS011;27399;51.516;13.670;2023-02-28T16:44:13;8.80;;;2.30;;
41711;SDS011;27399;51.516;13.670;2023-02-28T16:46:46;8.57;;;2.60;;
41711;SDS011;27399;51.516;13.670;2023-02-28T16:49:11;10.52;;;2.50;;
41711;SDS011;27399;51.516;13.670;2023-02-28T16:51:37;5.82;;;2.20;;
41711;SDS011;27399;51.516;13.670;2023-02-28T16:54:03;4.13;;;1.73;;
41711;SDS011;27399;51.516;13.670;2023-02-28T16:56:29;6.40;;;2.28;;
41711;SDS011;27399;51.516;13.670;2023-02-28T16:58:55;5.60;;;2.20;;
41711;SDS011;27399;51.516;13.670;2023-02-28T17:03:52;10.95;;;3.38;;
41711;SDS011;27399;51.516;13.670;2023-02-28T17:08:52;10.55;;;4.07;;
41711;SDS011;27399;51.516;13.670;2023-02-28T17:11:19;5.90;;;2.70;;
41711;SDS011;27399;51.516;13.670;2023-02-28T17:13:45;9.35;;;3.35;;
41711;SDS011;27399;51.516;13.670;2023-02-28T17:16:44;8.15;;;3.28;;
41711;SDS011;27399;51.516;13.670;2023-02-28T17:19:13;7.32;;;2.65;;
41711;SDS011;27399;51.516;13.670;2023-02-28T17:21:40;6.10;;;2.30;;
41711;SDS011;27399;51.516;13.670;2023-02-28T17:24:07;6.00;;;1.85;;
41711;SDS011;27399;51.516;13.670;2023-02-28T17:26:33;5.38;;;2.38;;
41711;SDS011;27399;51.516;13.670;2023-02-28T17:28:59;9.48;;;2.03;;
41711;SDS011;27399;51.516;13.670;2023-02-28T17:31:25;5.32;;;1.90;;
41711;SDS011;27399;51.516;13.670;2023-02-28T17:33:52;5.15;;;2.05;;
41711;SDS011;27399;51.516;13.670;2023-02-28T17:36:25;4.03;;;1.85;;
41711;SDS011;27399;51.516;13.670;2023-02-28T17:38:52;4.70;;;2.55;;
41711;SDS011;27399;51.516;13.670;2023-02-28T17:41:20;5.43;;;2.45;;
41711;SDS011;27399;51.516;13.670;2023-02-28T17:43:45;4.55;;;2.45;;
41711;SDS011;27399;51.516;13.670;2023-02-28T17:46:15;4.63;;;2.10;;
41711;SDS011;27399;51.516;13.670;2023-02-28T17:48:46;8.30;;;2.33;;